Time;durP1;ratioP1;P1;durP2;ratioP2;P2;SDS_P1;SDS_P2;PMS_P1;PMS_P2;Temp;Humidity;BMP_temperature;BMP_pressure;BME280_temperature;BME280_humidity;BME280_pressure;Samples;Min_cycle;Max_cycle;Signal;HPM_P1;HPM_P2
2023/04/07 00:00:29;;;;;;;5.45;3.33;;;6.90;99.90;;;;;;5061728;28;20049;-84
2023/04/07 00:02:55;;;;;;;5.85;3.10;;;6.90;99.90;;;;;;5051241;28;20044;-84
2023/04/07 00:05:21;;;;;;;4.97;2.75;;;6.90;99.90;;;;;;5066102;28;20036;-84
2023/04/07 00:07:47;;;;;;;5.05;3.20;;;7.60;99.90;;;;;;5055672;28;20103;-83
2023/04/07 00:10:13;;;;;;;4.68;2.95;;;6.90;99.90;;;;;;5063163;28;20048;-83
2023/04/07 00:12:39;;;;;;;5.25;3.10;;;6.90;99.90;;;;;;5061941;28;20029;-83
2023/04/07 00:15:05;;;;;;;4.93;2.88;;;6.90;99.90;;;;;;5063107;28;20076;-83
2023/04/07 00:17:31;;;;;;;5.28;2.85;;;6.90;99.90;;;;;;5059371;28;20060;-83
2023/04/07 00:19:56;;;;;;;4.15;2.35;;;7.00;99.90;;;;;;5061665;28;20053;-83
2023/04/07 00:22:22;;;;;;;7.32;4.20;;;6.90;99.90;;;;;;5061794;28;20509;-83
2023/04/07 00:24:48;;;;;;;5.95;3.45;;;6.90;99.90;;;;;;5063015;28;20070;-83
2023/04/07 00:27:13;;;;;;;5.13;3.10;;;6.90;99.90;;;;;;5062780;28;20045;-83
2023/04/07 00:29:39;;;;;;;6.50;3.58;;;7.10;99.90;;;;;;5062297;28;20067;-83
2023/04/07 00:32:04;;;;;;;6.13;3.30;;;7.90;99.90;;;;;;5062691;28;20098;-84
2023/04/07 00:34:30;;;;;;;5.65;3.47;;;7.00;99.90;;;;;;5059815;28;20024;-83
2023/04/07 00:36:56;;;;;;;6.13;3.67;;;7.10;99.90;;;;;;5062755;28;20044;-84
2023/04/07 00:39:21;;;;;;;4.55;2.67;;;7.30;99.90;;;;;;5055113;28;20390;-83
2023/04/07 00:41:47;;;;;;;6.88;3.88;;;7.10;99.90;;;;;;5063147;28;20536;-84
2023/04/07 00:44:13;;;;;;;5.15;2.97;;;6.90;99.90;;;;;;5065275;28;20516;-84
2023/04/07 00:46:39;;;;;;;5.38;3.42;;;6.90;99.90;;;;;;5066528;28;20448;-83
2023/04/07 00:49:06;;;;;;;6.20;3.58;;;7.10;99.90;;;;;;5064619;28;20045;-83
2023/04/07 00:51:32;;;;;;;5.82;3.58;;;7.70;99.90;;;;;;5054729;28;20037;-83
2023/04/07 00:53:59;;;;;;;7.13;4.40;;;7.20;99.90;;;;;;5061310;28;20132;-83
2023/04/07 00:56:26;;;;;;;6.97;3.65;;;7.20;99.90;;;;;;5060432;28;20102;-83
2023/04/07 00:58:51;;;;;;;6.95;3.60;;;6.90;99.90;;;;;;5060647;28;20061;-83
2023/04/07 01:01:43;;;;;;;5.60;3.50;;;6.90;99.90;;;;;;5061416;28;20379;-83
2023/04/07 01:04:18;;;;;;;6.97;3.80;;;7.10;99.90;;;;;;5069298;28;20052;-84
2023/04/07 01:06:49;;;;;;;6.18;3.55;;;7.90;99.90;;;;;;5062141;28;20045;-83
2023/04/07 01:09:29;;;;;;;7.72;4.13;;;6.90;99.90;;;;;;5061842;28;20044;-83
2023/04/07 01:12:02;;;;;;;6.53;4.13;;;6.90;99.90;;;;;;5060828;28;20041;-83
2023/04/07 01:14:37;;;;;;;5.93;3.72;;;7.20;99.90;;;;;;5057656;28;20036;-83
2023/04/07 01:17:05;;;;;;;6.50;2.97;;;7.80;99.90;;;;;;5065159;28;20045;-83
2023/04/07 01:19:42;;;;;;;5.57;3.17;;;7.10;99.90;;;;;;5069484;28;20095;-84
2023/04/07 01:22:16;;;;;;;4.43;2.60;;;6.90;99.90;;;;;;5061646;28;20045;-83
2023/04/07 01:24:45;;;;;;;6.63;3.65;;;7.10;99.90;;;;;;5072886;28;20474;-83
2023/04/07 01:27:50;;;;;;;5.70;2.92;;;7.80;99.90;;;;;;5093942;28;20466;-84
2023/04/07 01:30:16;;;;;;;5.28;3.05;;;6.90;99.90;;;;;;5057423;28;20041;-84
2023/04/07 01:32:48;;;;;;;6.03;3.38;;;7.20;99.90;;;;;;5009668;28;20053;-83
2023/04/07 01:35:15;;;;;;;5.95;3.47;;;7.20;99.90;;;;;;5035257;28;20529;-83
2023/04/07 01:37:42;;;;;;;7.22;3.85;;;7.80;99.90;;;;;;5042546;28;20045;-84
2023/04/07 01:40:08;;;;;;;6.57;2.97;;;6.90;99.90;;;;;;5042691;28;20059;-84
2023/04/07 01:42:37;;;;;;;5.07;3.03;;;6.90;99.90;;;;;;5041122;28;20088;-83
2023/04/07 01:45:03;;;;;;;4.80;3.33;;;6.90;99.90;;;;;;5043174;28;20048;-84
2023/04/07 01:47:30;;;;;;;4.75;2.78;;;6.90;99.90;;;;;;5040561;28;20498;-83
2023/04/07 01:49:58;;;;;;;4.95;2.95;;;6.90;99.90;;;;;;5040315;28;20113;-83
2023/04/07 01:52:25;;;;;;;6.45;3.30;;;7.10;99.90;;;;;;5045364;28;20469;-84
2023/04/07 01:54:52;;;;;;;5.57;3.00;;;7.20;99.90;;;;;;5034661;28;20057;-83
2023/04/07 01:57:18;;;;;;;6.15;3.88;;;7.10;99.90;;;;;;5035498;28;20042;-83
2023/04/07 01:59:44;;;;;;;5.95;3.25;;;7.70;99.90;;;;;;5044156;28;20057;-84
2023/04/07 02:02:10;;;;;;;5.78;3.40;;;6.80;99.90;;;;;;5038857;28;20052;-84
2023/04/07 02:04:55;;;;;;;4.47;2.58;;;7.80;99.90;;;;;;5031593;28;20044;-83
2023/04/07 02:07:56;;;;;;;6.07;2.70;;;6.80;99.90;;;;;;5056224;28;20127;-84
2023/04/07 02:10:25;;;;;;;4.53;2.75;;;6.80;99.90;;;;;;5035929;28;20587;-83
2023/04/07 02:12:52;;;;;;;5.40;3.15;;;6.80;99.90;;;;;;5045275;28;20398;-84
2023/04/07 02:15:18;;;;;;;5.03;3.35;;;6.80;99.90;;;;;;5037028;28;20052;-84
2023/04/07 02:17:48;;;;;;;5.78;3.55;;;7.10;99.90;;;;;;5039713;28;20041;-84
2023/04/07 02:20:15;;;;;;;7.20;3.72;;;7.30;99.90;;;;;;5038279;28;20490;-84
2023/04/07 02:22:43;;;;;;;7.38;4.55;;;7.10;99.90;;;;;;5022685;28;20038;-84
2023/04/07 02:25:29;;;;;;;6.68;3.58;;;7.20;99.90;;;;;;5037731;28;20048;-84
2023/04/07 02:27:58;;;;;;;7.78;4.20;;;6.80;99.90;;;;;;5021726;28;20056;-84
2023/04/07 02:30:24;;;;;;;7.47;3.40;;;7.40;99.90;;;;;;5021952;28;20049;-84
2023/04/07 02:32:50;;;;;;;7.03;3.53;;;7.30;99.90;;;;;;5016756;28;20099;-84
2023/04/07 02:35:16;;;;;;;6.57;4.30;;;7.00;99.90;;;;;;5030568;28;20076;-84
2023/04/07 02:37:43;;;;;;;6.95;3.95;;;7.10;99.90;;;;;;5038054;28;20498;-84
2023/04/07 02:40:09;;;;;;;5.97;3.90;;;7.00;99.90;;;;;;5042443;28;20130;-84
2023/04/07 02:42:35;;;;;;;9.27;5.03;;;6.80;99.90;;;;;;5041699;28;20057;-84
2023/04/07 02:45:02;;;;;;;6.80;3.70;;;7.30;99.90;;;;;;5038145;28;20644;-84
2023/04/07 02:47:28;;;;;;;5.85;3.60;;;6.70;99.90;;;;;;5057493;28;20607;-84
2023/04/07 02:49:54;;;;;;;7.18;4.18;;;6.80;99.90;;;;;;5061698;28;20062;-84
2023/04/07 02:52:19;;;;;;;8.52;4.80;;;7.90;99.90;;;;;;5060982;28;20552;-84
2023/04/07 02:54:46;;;;;;;8.98;5.40;;;6.70;99.90;;;;;;5060646;28;20077;-83
2023/04/07 02:57:12;;;;;;;7.82;4.72;;;7.10;99.90;;;;;;5063619;28;20045;-84
2023/04/07 02:59:38;;;;;;;7.70;4.35;;;7.40;99.90;;;;;;5066448;28;20048;-84
2023/04/07 03:02:04;;;;;;;6.45;3.40;;;6.80;99.90;;;;;;5060779;28;20063;-84
2023/04/07 03:04:30;;;;;;;6.88;3.53;;;7.30;99.90;;;;;;5064133;28;20056;-84
2023/04/07 03:06:56;;;;;;;4.43;3.08;;;7.40;99.90;;;;;;5056210;28;20120;-84
2023/04/07 03:09:22;;;;;;;6.13;3.90;;;7.40;99.90;;;;;;5060203;28;20029;-83
2023/04/07 03:11:48;;;;;;;8.45;4.93;;;6.80;99.90;;;;;;5065786;28;20463;-83
2023/04/07 03:14:15;;;;;;;8.80;5.22;;;6.80;99.90;;;;;;5055358;28;20041;-83
2023/04/07 03:16:40;;;;;;;9.32;4.82;;;6.80;99.90;;;;;;5064768;28;20045;-84
2023/04/07 03:19:07;;;;;;;7.45;4.90;;;6.90;99.90;;;;;;5066115;28;20049;-84
2023/04/07 03:21:33;;;;;;;6.88;4.10;;;7.40;99.90;;;;;;5100153;28;20055;-84
2023/04/07 03:23:59;;;;;;;6.45;3.33;;;6.70;99.90;;;;;;5064409;28;20103;-84
2023/04/07 03:26:25;;;;;;;7.45;4.63;;;7.50;99.90;;;;;;5061393;28;20117;-84
2023/04/07 03:28:51;;;;;;;7.03;4.25;;;7.10;99.90;;;;;;5063792;28;20048;-83
2023/04/07 03:31:16;;;;;;;7.38;3.75;;;6.80;99.90;;;;;;5066581;28;20497;-84
2023/04/07 03:33:42;;;;;;;7.22;4.10;;;7.10;99.90;;;;;;5067213;28;20496;-83
2023/04/07 03:36:07;;;;;;;7.15;3.88;;;7.10;99.90;;;;;;5064214;28;20048;-84
2023/04/07 03:38:33;;;;;;;8.45;4.60;;;6.70;99.90;;;;;;5063818;28;20044;-83
2023/04/07 03:40:59;;;;;;;6.78;3.90;;;7.60;99.90;;;;;;5064977;28;20036;-83
2023/04/07 03:43:25;;;;;;;6.70;4.40;;;6.70;99.90;;;;;;5067404;28;20427;-84
2023/04/07 03:45:54;;;;;;;9.95;5.90;;;7.50;99.90;;;;;;5066913;28;20488;-84
2023/04/07 03:48:20;;;;;;;6.97;4.28;;;6.70;99.90;;;;;;5063295;28;20068;-84
2023/04/07 03:50:46;;;;;;;7.10;3.88;;;6.60;99.90;;;;;;5062414;28;20501;-84
2023/04/07 03:53:15;;;;;;;8.10;5.10;;;7.50;99.90;;;;;;5067203;28;20043;-84
2023/04/07 03:55:41;;;;;;;8.65;5.88;;;6.70;99.90;;;;;;5062187;28;20120;-84
2023/04/07 03:58:08;;;;;;;8.25;5.55;;;7.40;99.90;;;;;;5062888;28;20086;-83
2023/04/07 04:00:34;;;;;;;12.38;7.55;;;6.80;99.90;;;;;;5055909;28;20564;-83
2023/04/07 04:03:00;;;;;;;11.18;6.55;;;6.80;99.90;;;;;;5045614;28;20059;-84
2023/04/07 04:05:26;;;;;;;13.18;7.13;;;6.70;99.90;;;;;;5068826;28;20136;-84
2023/04/07 04:07:51;;;;;;;11.52;6.82;;;6.70;99.90;;;;;;5061078;28;20120;-84
2023/04/07 04:10:20;;;;;;;12.70;7.18;;;7.10;99.90;;;;;;5063939;28;20093;-83
2023/04/07 04:12:47;;;;;;;11.48;6.85;;;8.00;99.90;;;;;;5066456;28;20120;-83
2023/04/07 04:15:13;;;;;;;9.75;5.68;;;7.40;99.90;;;;;;5064241;28;20170;-83
2023/04/07 04:17:39;;;;;;;11.55;6.22;;;6.70;99.90;;;;;;5057994;28;20048;-84
2023/04/07 04:20:05;;;;;;;11.40;7.45;;;6.70;99.90;;;;;;5066615;28;20043;-83
2023/04/07 04:22:31;;;;;;;10.93;6.43;;;6.70;99.90;;;;;;5054600;28;20428;-83
2023/04/07 04:24:58;;;;;;;11.07;6.78;;;6.80;99.90;;;;;;5063085;28;20040;-83
2023/04/07 04:27:23;;;;;;;11.38;6.82;;;6.70;99.90;;;;;;5063922;28;20501;-84
2023/04/07 04:29:49;;;;;;;8.77;5.53;;;6.60;99.90;;;;;;5065234;28;20048;-83
2023/04/07 04:32:16;;;;;;;9.40;5.68;;;6.90;99.90;;;;;;5064877;28;20050;-83
2023/04/07 04:34:42;;;;;;;8.82;5.28;;;6.90;99.90;;;;;;5062121;28;20041;-84
2023/04/07 04:37:08;;;;;;;7.80;4.60;;;6.70;99.90;;;;;;5056085;28;20087;-84
2023/04/07 04:39:34;;;;;;;8.25;5.55;;;7.50;99.90;;;;;;5089649;28;20133;-83
2023/04/07 04:42:00;;;;;;;9.18;5.10;;;6.70;99.90;;;;;;5066019;28;20493;-81
2023/04/07 04:44:26;;;;;;;9.38;5.07;;;7.00;99.90;;;;;;5064016;28;20048;-83
2023/04/07 04:46:52;;;;;;;10.27;6.03;;;6.70;99.90;;;;;;5062055;28;20055;-83
2023/04/07 04:49:18;;;;;;;10.82;5.93;;;6.50;99.90;;;;;;5054015;28;20041;-83
2023/04/07 04:51:44;;;;;;;8.82;5.68;;;7.10;99.90;;;;;;5062229;28;20120;-83
2023/04/07 04:54:10;;;;;;;7.07;4.88;;;6.70;99.90;;;;;;5061234;28;20560;-84
2023/04/07 04:56:36;;;;;;;8.23;5.50;;;7.60;99.90;;;;;;5060498;28;20136;-83
2023/04/07 04:59:03;;;;;;;8.48;5.03;;;6.70;99.90;;;;;;5062313;28;20452;-83
2023/04/07 05:01:29;;;;;;;9.27;5.95;;;6.70;99.90;;;;;;5067332;28;20095;-83
2023/04/07 05:03:55;;;;;;;10.52;6.03;;;7.20;99.90;;;;;;5062084;28;20052;-83
2023/04/07 05:06:21;;;;;;;8.35;4.75;;;6.70;99.90;;;;;;5061300;28;20124;-83
2023/04/07 05:08:47;;;;;;;9.18;5.32;;;6.70;99.90;;;;;;5060777;28;20045;-84
2023/04/07 05:11:13;;;;;;;9.07;6.28;;;7.30;99.90;;;;;;5061136;28;20520;-83
2023/04/07 05:13:38;;;;;;;11.85;6.40;;;6.70;99.90;;;;;;5062127;28;20045;-84
2023/04/07 05:16:05;;;;;;;10.88;5.03;;;6.70;99.90;;;;;;5060527;28;20103;-84
2023/04/07 05:18:31;;;;;;;9.98;5.97;;;6.70;99.90;;;;;;5060583;28;20432;-83
2023/04/07 05:20:56;;;;;;;7.82;4.75;;;6.80;99.90;;;;;;5058016;28;20040;-84
2023/04/07 05:23:22;;;;;;;8.40;4.80;;;6.70;99.90;;;;;;5056501;28;20397;-84
2023/04/07 05:25:48;;;;;;;10.05;5.22;;;6.70;99.90;;;;;;5062164;28;20048;-85
2023/04/07 05:28:13;;;;;;;12.00;6.50;;;6.40;99.90;;;;;;5065303;28;20043;-84
2023/04/07 05:30:39;;;;;;;10.98;6.28;;;6.70;99.90;;;;;;5055201;28;20044;-84
2023/04/07 05:33:05;;;;;;;10.27;6.38;;;6.70;99.90;;;;;;5063671;28;20135;-85
2023/04/07 05:35:31;;;;;;;13.63;7.15;;;6.80;99.90;;;;;;5056191;28;20094;-85
2023/04/07 05:37:56;;;;;;;10.10;6.07;;;8.00;99.90;;;;;;5052627;28;20043;-85
2023/04/07 05:40:23;;;;;;;11.05;6.20;;;7.60;99.90;;;;;;5060771;28;20051;-84
2023/04/07 05:42:49;;;;;;;11.95;6.70;;;7.70;99.90;;;;;;5064142;28;20037;-84
2023/04/07 05:45:14;;;;;;;11.75;6.63;;;7.10;99.90;;;;;;5064691;28;20089;-84
2023/04/07 05:47:40;;;;;;;12.45;6.90;;;7.10;99.90;;;;;;5062172;28;20036;-84
2023/04/07 05:50:06;;;;;;;10.07;6.15;;;7.70;99.90;;;;;;5060466;28;20039;-84
2023/04/07 05:52:32;;;;;;;11.13;6.45;;;6.70;99.90;;;;;;5064222;28;20040;-84
2023/04/07 05:54:58;;;;;;;10.23;5.78;;;6.80;99.90;;;;;;5063777;28;20538;-83
2023/04/07 05:57:26;;;;;;;12.13;6.68;;;6.60;99.90;;;;;;5064663;28;20044;-83
2023/04/07 05:59:52;;;;;;;12.40;6.70;;;6.60;99.90;;;;;;5053948;28;20061;-84
2023/04/07 06:02:17;;;;;;;9.90;5.20;;;6.70;99.90;;;;;;5060110;28;20411;-84
2023/04/07 06:04:43;;;;;;;12.98;6.75;;;6.70;99.90;;;;;;5060987;28;20136;-83
2023/04/07 06:07:08;;;;;;;9.63;5.88;;;7.30;99.90;;;;;;5060608;28;20060;-83
2023/04/07 06:09:34;;;;;;;10.73;6.30;;;6.70;99.90;;;;;;5060973;28;20067;-84
2023/04/07 06:12:01;;;;;;;8.15;5.22;;;6.70;99.90;;;;;;5059363;28;20410;-83
2023/04/07 06:14:26;;;;;;;14.63;8.18;;;7.40;99.90;;;;;;5060928;28;20041;-84
2023/04/07 06:16:52;;;;;;;13.20;8.40;;;7.80;99.90;;;;;;5060728;28;20130;-83
2023/04/07 06:19:17;;;;;;;12.50;7.60;;;6.70;99.90;;;;;;5064136;28;20040;-84
2023/04/07 06:21:43;;;;;;;8.23;5.85;;;6.20;99.90;;;;;;5064721;28;20064;-85
2023/04/07 06:24:09;;;;;;;11.95;6.85;;;7.60;99.90;;;;;;5063300;28;20054;-84
2023/04/07 06:26:35;;;;;;;8.85;5.40;;;6.80;99.90;;;;;;5064562;28;20029;-84
2023/04/07 06:29:00;;;;;;;11.70;6.65;;;7.50;99.90;;;;;;5067566;28;20036;-84
2023/04/07 06:31:27;;;;;;;10.85;6.90;;;7.20;99.90;;;;;;5056688;28;20076;-82
2023/04/07 06:33:52;;;;;;;11.02;6.30;;;7.40;99.90;;;;;;5055393;28;20102;-81
2023/04/07 06:36:18;;;;;;;9.77;6.10;;;7.90;99.90;;;;;;5045554;28;20033;-82
2023/04/07 06:38:44;;;;;;;7.70;4.85;;;7.60;99.90;;;;;;5059461;28;20048;-84
2023/04/07 06:41:15;;;;;;;9.32;5.70;;;7.00;99.90;;;;;;5054744;28;20037;-81
2023/04/07 06:43:45;;;;;;;12.32;6.82;;;7.00;99.90;;;;;;5064029;28;20028;-81
2023/04/07 06:46:11;;;;;;;14.18;8.32;;;7.00;99.90;;;;;;5055624;28;20055;-82
2023/04/07 06:48:36;;;;;;;14.85;8.70;;;7.10;99.90;;;;;;5079766;28;20040;-82
2023/04/07 06:51:02;;;;;;;13.30;7.53;;;7.40;99.90;;;;;;5054003;28;20064;-82
2023/04/07 06:53:28;;;;;;;11.30;7.00;;;7.20;99.90;;;;;;5063702;28;20469;-81
2023/04/07 06:56:08;;;;;;;13.35;7.68;;;7.20;99.90;;;;;;5062883;28;20045;-82
2023/04/07 06:58:34;;;;;;;11.65;6.50;;;7.20;99.90;;;;;;5063790;28;20048;-82
2023/04/07 07:01:00;;;;;;;10.65;6.50;;;7.70;99.90;;;;;;5054546;28;20399;-83
2023/04/07 07:03:28;;;;;;;10.77;6.30;;;7.30;99.90;;;;;;5053380;28;20041;-82
2023/04/07 07:05:55;;;;;;;8.77;5.35;;;7.70;99.90;;;;;;5060895;28;20037;-83
2023/04/07 07:08:21;;;;;;;8.95;6.20;;;8.00;99.90;;;;;;5053537;28;20060;-83
2023/04/07 07:10:47;;;;;;;10.38;5.88;;;7.70;99.90;;;;;;5057362;28;20367;-82
2023/04/07 07:13:13;;;;;;;9.70;5.90;;;7.70;99.90;;;;;;5053764;28;20056;-82
2023/04/07 07:15:39;;;;;;;7.78;4.63;;;7.80;99.90;;;;;;5061494;28;20383;-83
2023/04/07 07:18:05;;;;;;;9.38;5.63;;;7.90;99.90;;;;;;5065327;28;20044;-82
2023/04/07 07:20:30;;;;;;;8.68;5.63;;;7.90;99.90;;;;;;5052124;28;20095;-81
2023/04/07 07:22:57;;;;;;;11.52;7.15;;;8.00;99.90;;;;;;5062834;28;20032;-81
2023/04/07 07:25:25;;;;;;;13.30;7.30;;;8.80;99.90;;;;;;5061850;28;20281;-81
2023/04/07 07:27:52;;;;;;;15.40;8.82;;;8.20;99.90;;;;;;5056768;28;20045;-81
2023/04/07 07:30:22;;;;;;;15.93;9.90;;;8.10;99.90;;;;;;5057511;28;20098;-83
2023/04/07 07:32:48;;;;;;;20.38;11.25;;;8.20;99.90;;;;;;5067115;28;20041;-82
2023/04/07 07:35:14;;;;;;;18.00;10.25;;;9.00;99.90;;;;;;5061510;28;20090;-83
2023/04/07 07:37:40;;;;;;;15.93;8.38;;;8.30;99.90;;;;;;5057902;28;20402;-81
2023/04/07 07:40:06;;;;;;;10.50;6.65;;;8.30;99.90;;;;;;5060498;28;20044;-83
2023/04/07 07:42:32;;;;;;;14.57;8.50;;;8.40;99.90;;;;;;5056520;28;20044;-83
2023/04/07 07:44:58;;;;;;;14.02;8.18;;;9.60;99.90;;;;;;5059401;28;20405;-84
2023/04/07 07:47:25;;;;;;;14.93;8.52;;;8.40;99.90;;;;;;5055508;28;20037;-84
2023/04/07 07:49:50;;;;;;;13.70;8.20;;;8.60;99.90;;;;;;5063709;28;20428;-83
2023/04/07 07:52:16;;;;;;;13.90;8.35;;;8.70;99.90;;;;;;5064048;28;20048;-84
2023/04/07 07:54:42;;;;;;;15.77;9.30;;;8.50;99.90;;;;;;5066903;28;20048;-83
2023/04/07 07:57:07;;;;;;;12.20;7.75;;;8.50;99.90;;;;;;5061242;28;20099;-83
2023/04/07 07:59:33;;;;;;;14.32;8.90;;;9.10;99.90;;;;;;5062817;28;20123;-85
2023/04/07 08:01:59;;;;;;;15.18;9.45;;;8.80;99.90;;;;;;5064490;28;20056;-83
2023/04/07 08:04:25;;;;;;;13.27;8.00;;;8.90;99.90;;;;;;5068593;28;20053;-84
2023/04/07 08:06:52;;;;;;;17.98;10.90;;;9.20;99.90;;;;;;5062918;28;20116;-83
2023/04/07 08:09:19;;;;;;;17.48;10.52;;;8.60;99.90;;;;;;5062831;28;20076;-83
2023/04/07 08:11:45;;;;;;;14.95;8.95;;;8.50;99.90;;;;;;5057740;28;20127;-84
2023/04/07 08:14:10;;;;;;;15.43;9.10;;;8.50;99.90;;;;;;5056597;28;20136;-82
2023/04/07 08:16:37;;;;;;;14.27;8.93;;;8.60;99.90;;;;;;5062648;28;20135;-85
2023/04/07 08:19:02;;;;;;;13.93;8.73;;;8.60;99.90;;;;;;5063679;28;20045;-86
2023/04/07 08:21:28;;;;;;;17.85;10.40;;;8.60;99.90;;;;;;5062344;28;20417;-86
2023/04/07 08:23:54;;;;;;;19.27;10.50;;;8.80;99.90;;;;;;5066595;28;20041;-86
2023/04/07 08:26:20;;;;;;;17.15;10.73;;;8.80;99.90;;;;;;5062659;28;20052;-84
2023/04/07 08:28:47;;;;;;;20.90;11.57;;;8.90;99.90;;;;;;5062971;28;20052;-86
2023/04/07 08:31:13;;;;;;;14.65;9.05;;;9.20;99.90;;;;;;5055312;28;20516;-84
2023/04/07 08:33:39;;;;;;;17.85;10.88;;;9.00;99.90;;;;;;5054145;28;20045;-84
2023/04/07 08:36:05;;;;;;;13.80;8.68;;;9.90;99.90;;;;;;5053720;28;20060;-85
2023/04/07 08:38:31;;;;;;;15.05;8.30;;;9.20;99.90;;;;;;5087798;28;20367;-85
2023/04/07 08:41:26;;;;;;;14.43;9.57;;;9.20;99.90;;;;;;5053928;28;20048;-85
2023/04/07 08:43:52;;;;;;;14.83;9.40;;;9.30;99.90;;;;;;5053063;28;20056;-85
2023/04/07 08:46:21;;;;;;;15.73;9.93;;;10.10;99.90;;;;;;5052980;28;20052;-85
2023/04/07 08:48:50;;;;;;;15.77;9.63;;;9.50;99.90;;;;;;5050396;28;20053;-85
2023/04/07 08:51:22;;;;;;;13.90;8.48;;;9.60;99.90;;;;;;5032963;28;20128;-85
2023/04/07 08:53:50;;;;;;;13.32;8.85;;;9.80;99.90;;;;;;5016597;28;20402;-86
2023/04/07 08:56:17;;;;;;;12.80;7.50;;;10.10;99.90;;;;;;5016783;28;20049;-86
2023/04/07 08:58:44;;;;;;;14.75;9.38;;;9.80;99.90;;;;;;5033170;28;20053;-85
2023/04/07 09:01:11;;;;;;;13.73;9.02;;;9.80;99.90;;;;;;5032508;28;20151;-85
2023/04/07 09:03:37;;;;;;;15.40;9.48;;;9.90;99.90;;;;;;5016229;28;20045;-85
2023/04/07 09:06:03;;;;;;;13.70;8.52;;;9.90;99.90;;;;;;5016075;28;20053;-84
2023/04/07 09:08:29;;;;;;;16.60;9.57;;;10.00;99.90;;;;;;5033831;28;20050;-85
2023/04/07 09:10:58;;;;;;;13.73;8.80;;;10.10;99.90;;;;;;5032820;28;20155;-85
2023/04/07 09:13:24;;;;;;;13.25;8.18;;;9.90;99.90;;;;;;5016061;28;20156;-84
2023/04/07 09:15:50;;;;;;;13.40;7.78;;;10.80;99.90;;;;;;5032669;28;20522;-85
2023/04/07 09:18:17;;;;;;;12.32;7.03;;;10.10;99.90;;;;;;5016052;28;20056;-84
2023/04/07 09:21:00;;;;;;;10.35;6.68;;;10.10;99.90;;;;;;5033314;28;20494;-82
2023/04/07 09:23:36;;;;;;;12.90;7.05;;;10.30;99.90;;;;;;5042604;28;20108;-83
2023/04/07 09:26:27;;;;;;;10.88;6.97;;;10.40;99.90;;;;;;5053161;28;20044;-82
2023/04/07 09:29:01;;;;;;;12.32;6.72;;;10.50;99.90;;;;;;5053245;28;20045;-83
2023/04/07 09:31:46;;;;;;;9.27;6.47;;;10.60;99.90;;;;;;5054208;28;20066;-82
2023/04/07 09:34:30;;;;;;;10.30;6.50;;;11.00;99.90;;;;;;5054565;28;20033;-83
2023/04/07 09:36:57;;;;;;;10.40;6.68;;;11.20;99.90;;;;;;5054155;28;20047;-82
2023/04/07 09:39:23;;;;;;;10.27;6.25;;;11.30;99.90;;;;;;5054042;28;20037;-82
2023/04/07 09:41:50;;;;;;;9.35;6.00;;;11.40;99.90;;;;;;5053804;28;20045;-83
2023/04/07 09:44:23;;;;;;;10.50;6.32;;;11.40;99.90;;;;;;5054290;28;20444;-83
2023/04/07 09:46:57;;;;;;;9.05;6.13;;;11.50;99.90;;;;;;5054211;28;20056;-83
2023/04/07 09:49:24;;;;;;;8.65;5.75;;;11.40;99.90;;;;;;5054084;28;20105;-84
2023/04/07 09:51:58;;;;;;;8.00;5.88;;;11.80;99.90;;;;;;5054019;28;20390;-83
2023/04/07 09:54:35;;;;;;;8.18;5.22;;;11.70;99.90;;;;;;5053982;28;20117;-83
2023/04/07 09:57:05;;;;;;;7.45;4.40;;;12.00;99.90;;;;;;5053476;28;20493;-83
2023/04/07 09:59:33;;;;;;;10.00;5.97;;;12.00;99.90;;;;;;5053925;28;20045;-83
2023/04/07 10:02:00;;;;;;;11.93;6.63;;;12.30;99.90;;;;;;5052206;28;20052;-83
2023/04/07 10:04:28;;;;;;;9.38;5.15;;;12.20;99.90;;;;;;5053848;28;20102;-82
2023/04/07 10:06:55;;;;;;;6.50;4.38;;;12.30;99.90;;;;;;5053631;28;20048;-82
2023/04/07 10:09:26;;;;;;;8.30;5.28;;;12.30;99.90;;;;;;5053828;28;20363;-83
2023/04/07 10:11:52;;;;;;;8.70;5.50;;;12.30;99.90;;;;;;5053220;28;20067;-83
2023/04/07 10:14:20;;;;;;;7.80;4.43;;;12.30;99.90;;;;;;5053589;28;20048;-84
2023/04/07 10:16:47;;;;;;;6.53;4.38;;;12.30;99.90;;;;;;5051765;28;20045;-85
2023/04/07 10:19:13;;;;;;;7.78;5.13;;;12.40;99.90;;;;;;5053059;28;20530;-83
2023/04/07 10:21:41;;;;;;;7.85;4.70;;;12.60;99.90;;;;;;5053297;28;20045;-85
2023/04/07 10:24:29;;;;;;;9.65;4.95;;;12.70;99.90;;;;;;5052676;28;20136;-84
2023/04/07 10:26:58;;;;;;;7.03;4.20;;;12.90;99.90;;;;;;5051760;28;20080;-84
2023/04/07 10:29:26;;;;;;;6.20;4.40;;;13.10;99.90;;;;;;5057963;28;20033;-85
2023/04/07 10:31:52;;;;;;;5.65;3.50;;;13.00;99.90;;;;;;5053577;28;20398;-82
2023/04/07 10:34:50;;;;;;;6.85;4.63;;;13.20;99.90;;;;;;5060106;28;20052;-84
2023/04/07 10:37:20;;;;;;;7.22;4.65;;;13.20;99.90;;;;;;5044150;28;20044;-84
2023/04/07 10:39:46;;;;;;;6.90;4.50;;;13.20;99.90;;;;;;5052981;28;20516;-82
2023/04/07 10:42:36;;;;;;;6.45;4.35;;;13.10;99.90;;;;;;5061474;28;20493;-83
2023/04/07 10:45:09;;;;;;;5.90;4.25;;;13.20;99.90;;;;;;5043301;28;20066;-83
2023/04/07 10:47:55;;;;;;;7.45;3.90;;;13.40;99.90;;;;;;5060972;28;20033;-85
2023/04/07 10:50:22;;;;;;;6.93;3.65;;;13.50;99.90;;;;;;5092153;28;20445;-85
2023/04/07 10:53:07;;;;;;;4.90;3.75;;;13.50;99.90;;;;;;5066284;28;20037;-84
2023/04/07 10:55:35;;;;;;;5.50;4.10;;;13.50;99.90;;;;;;5055185;28;20072;-83
2023/04/07 10:58:14;;;;;;;5.18;3.65;;;13.50;99.90;;;;;;5055592;28;20071;-83
2023/04/07 11:00:41;;;;;;;6.13;4.28;;;13.60;99.90;;;;;;5052073;28;20516;-83
2023/04/07 11:03:14;;;;;;;4.43;3.17;;;13.60;99.90;;;;;;5062005;28;20124;-84
2023/04/07 11:05:40;;;;;;;6.63;4.18;;;13.40;99.90;;;;;;5063174;28;20033;-83
2023/04/07 11:08:06;;;;;;;4.78;3.20;;;13.40;99.90;;;;;;5065897;28;20055;-84
2023/04/07 11:10:33;;;;;;;6.15;3.38;;;13.30;99.90;;;;;;5050952;28;20553;-84
2023/04/07 11:13:01;;;;;;;6.97;3.70;;;13.40;99.90;;;;;;5051824;28;20052;-84
2023/04/07 11:15:27;;;;;;;4.68;2.88;;;13.40;99.90;;;;;;5059861;28;20037;-84
2023/04/07 11:18:25;;;;;;;4.80;3.65;;;13.40;99.90;;;;;;5053968;28;20516;-83
2023/04/07 11:20:53;;;;;;;6.63;4.00;;;13.30;99.90;;;;;;5050068;28;20060;-83
2023/04/07 11:23:22;;;;;;;4.80;3.20;;;13.30;99.90;;;;;;5021441;28;20060;-84
2023/04/07 11:25:50;;;;;;;4.70;3.40;;;13.30;99.90;;;;;;5045337;28;20064;-84
2023/04/07 11:28:16;;;;;;;5.47;3.60;;;13.20;99.90;;;;;;5044899;28;20045;-84
2023/04/07 11:30:48;;;;;;;5.63;3.53;;;13.20;99.90;;;;;;5044357;28;20061;-85
2023/04/07 11:33:22;;;;;;;5.63;3.40;;;13.20;99.90;;;;;;5025362;28;20104;-82
2023/04/07 11:35:54;;;;;;;6.50;4.07;;;13.20;99.90;;;;;;5033800;28;20117;-83
2023/04/07 11:38:22;;;;;;;6.88;4.53;;;13.20;99.90;;;;;;5041303;28;20088;-84
2023/04/07 11:40:48;;;;;;;6.10;4.05;;;13.20;99.90;;;;;;5016115;28;20037;-83
2023/04/07 11:43:24;;;;;;;6.20;3.63;;;13.10;99.90;;;;;;5017524;28;20144;-84
2023/04/07 11:46:07;;;;;;;5.38;3.67;;;13.10;99.90;;;;;;5017421;28;20057;-83
2023/04/07 11:48:34;;;;;;;7.00;4.07;;;13.20;99.90;;;;;;5038038;28;20056;-83
2023/04/07 11:51:01;;;;;;;7.03;3.75;;;13.20;99.90;;;;;;5035554;28;20054;-84
2023/04/07 11:53:36;;;;;;;6.88;4.60;;;13.30;99.90;;;;;;5044528;28;20128;-83
2023/04/07 11:56:08;;;;;;;5.65;4.28;;;13.30;99.90;;;;;;5049720;28;20444;-84
2023/04/07 11:58:40;;;;;;;6.50;4.55;;;13.40;99.90;;;;;;5061832;28;20036;-83
2023/04/07 12:01:07;;;;;;;6.55;4.28;;;13.50;99.90;;;;;;5058005;28;20118;-84
2023/04/07 12:03:37;;;;;;;9.10;4.75;;;13.60;99.90;;;;;;5060728;28;20037;-84
2023/04/07 12:06:03;;;;;;;5.78;4.30;;;13.80;99.90;;;;;;5062842;28;20102;-85
2023/04/07 12:08:43;;;;;;;6.30;4.30;;;13.90;99.90;;;;;;5067905;28;20044;-84
2023/04/07 12:11:09;;;;;;;5.93;4.03;;;13.80;99.90;;;;;;5057050;28;20045;-85
2023/04/07 12:13:36;;;;;;;7.20;3.72;;;13.70;99.90;;;;;;5061815;28;20041;-84
2023/04/07 12:16:10;;;;;;;4.65;3.30;;;13.90;99.90;;;;;;5054758;28;20075;-86
2023/04/07 12:18:36;;;;;;;4.00;2.92;;;13.80;99.90;;;;;;5066454;28;20158;-84
2023/04/07 12:21:02;;;;;;;3.85;3.05;;;13.90;99.90;;;;;;5064994;28;20076;-85
2023/04/07 12:23:28;;;;;;;5.53;3.30;;;13.90;99.90;;;;;;5055988;28;20492;-84
2023/04/07 12:25:53;;;;;;;4.22;3.00;;;14.00;99.90;;;;;;5064993;28;20048;-88
2023/04/07 12:28:19;;;;;;;4.50;2.80;;;14.20;99.90;;;;;;5067038;28;20101;-82
2023/04/07 12:30:45;;;;;;;5.82;2.72;;;14.30;99.90;;;;;;5059432;28;20074;-82
2023/04/07 12:33:11;;;;;;;4.53;2.53;;;14.60;99.90;;;;;;5062130;28;20047;-83
2023/04/07 12:35:37;;;;;;;5.60;3.08;;;14.80;99.90;;;;;;5062685;28;20078;-84
2023/04/07 12:38:04;;;;;;;3.97;2.72;;;15.20;99.90;;;;;;5053365;28;20056;-84
2023/04/07 12:40:30;;;;;;;3.80;2.58;;;15.40;99.90;;;;;;5062798;28;20037;-84
2023/04/07 12:42:57;;;;;;;3.83;2.50;;;15.70;99.90;;;;;;5054632;28;20543;-84
2023/04/07 12:45:23;;;;;;;5.00;2.55;;;15.70;99.90;;;;;;5062081;28;20577;-84
2023/04/07 12:47:49;;;;;;;5.15;3.10;;;15.60;99.20;;;;;;5062679;28;20045;-84
2023/04/07 12:50:15;;;;;;;6.55;3.35;;;15.50;99.10;;;;;;5065905;28;20404;-84
2023/04/07 12:52:40;;;;;;;4.45;2.38;;;15.50;99.50;;;;;;5062361;28;20052;-84
2023/04/07 12:55:07;;;;;;;4.78;2.92;;;15.40;99.90;;;;;;5065312;28;20199;-84